Time;durP1;ratioP1;P1;durP2;ratioP2;P2;SDS_P1;SDS_P2;PMS_P1;PMS_P2;Temp;Humidity;BMP_temperature;BMP_pressure;BME280_temperature;BME280_humidity;BME280_pressure;Samples;Min_cycle;Max_cycle;Signal;HPM_P1;HPM_P2
2022/08/23 00:02:22;;;;;;;;;;;;;;;22.31;29.31;97259.91;4935898;29;1052;-78
2022/08/23 00:04:48;;;;;;;;;;;;;;;22.03;29.72;97254.13;4935991;29;961;-77
2022/08/23 00:07:13;;;;;;;;;;;;;;;22.31;29.47;97257.88;4938493;29;1910;-78
2022/08/23 00:09:39;;;;;;;;;;;;;;;22.38;29.38;97256.78;4952798;29;1513;-77
2022/08/23 00:12:18;;;;;;;;;;;;;;;22.17;29.32;97247.13;4958711;29;984;-78
2022/08/23 00:14:45;;;;;;;;;;;;;;;22.20;29.45;97246.19;4958540;29;908;-77
2022/08/23 00:17:10;;;;;;;;;;;;;;;22.14;29.24;97248.06;4958545;29;999;-78
2022/08/23 00:19:36;;;;;;;;;;;;;;;22.38;28.88;97250.31;4958618;29;994;-78
2022/08/23 00:22:01;;;;;;;;;;;;;;;22.27;29.23;97254.38;4958718;29;957;-77
2022/08/23 00:24:27;;;;;;;;;;;;;;;22.07;29.58;97256.81;4972244;28;1722;-78
2022/08/23 00:27:06;;;;;;;;;;;;;;;22.21;29.12;97253.44;4977965;28;1906;-78
2022/08/23 00:29:52;;;;;;;;;;;;;;;22.34;28.88;97262.63;4961433;28;988;-78
2022/08/23 00:32:21;;;;;;;;;;;;;;;22.25;29.18;97253.28;4978438;28;1746;-77
2022/08/23 00:34:47;;;;;;;;;;;;;;;22.35;28.90;97263.41;4981940;28;803;-77
2022/08/23 00:37:12;;;;;;;;;;;;;;;22.44;29.01;97265.47;4982599;28;916;-78
2022/08/23 00:39:39;;;;;;;;;;;;;;;22.34;29.14;97273.94;4998298;28;1586;-77
2022/08/23 00:47:52;;;;;;;;;;;;;;;22.29;29.08;97266.06;4963594;28;1910;-77
2022/08/23 00:50:18;;;;;;;;;;;;;;;22.24;29.33;97268.72;4977390;28;987;-77
2022/08/23 00:52:51;;;;;;;;;;;;;;;22.20;29.22;97271.69;4938603;29;939;-77
2022/08/23 00:55:17;;;;;;;;;;;;;;;22.23;29.50;97273.59;4922335;29;1471;-78
2022/08/23 00:57:43;;;;;;;;;;;;;;;21.59;28.57;97140.19;4938695;29;1135;-78
2022/08/23 01:00:09;;;;;;;;;;;;;;;22.49;28.87;97279.81;4938740;29;1110;-79
2022/08/23 01:02:34;;;;;;;;;;;;;;;22.30;28.94;97278.97;4938640;29;1125;-78
2022/08/23 01:05:00;;;;;;;;;;;;;;;22.39;29.19;97275.38;4923101;29;1041;-78
2022/08/23 01:07:31;;;;;;;;;;;;;;;22.28;29.19;97278.66;4922831;29;1993;-77
2022/08/23 01:09:58;;;;;;;;;;;;;;;22.07;29.51;97276.63;4937497;29;1487;-78
2022/08/23 01:12:26;;;;;;;;;;;;;;;22.02;29.57;97286.56;4903685;29;1023;-77
2022/08/23 01:15:03;;;;;;;;;;;;;;;22.28;29.35;97292.84;4919291;29;996;-79
2022/08/23 01:17:32;;;;;;;;;;;;;;;22.23;29.21;97287.78;4918276;29;956;-78
2022/08/23 01:20:02;;;;;;;;;;;;;;;22.03;29.49;97288.13;4903481;29;998;-78
2022/08/23 01:22:33;;;;;;;;;;;;;;;22.07;29.45;97282.31;4881458;29;999;-78
2022/08/23 01:24:59;;;;;;;;;;;;;;;22.26;29.42;97284.00;4865995;29;1599;-78
2022/08/23 01:27:26;;;;;;;;;;;;;;;21.47;29.17;97149.59;4881288;29;1915;-77
2022/08/23 01:29:51;;;;;;;;;;;;;;;22.23;29.21;97290.59;4881743;29;967;-78
2022/08/23 01:32:17;;;;;;;;;;;;;;;22.22;29.51;97288.22;4866663;29;1272;-77
2022/08/23 01:34:42;;;;;;;;;;;;;;;22.09;29.60;97285.47;4866243;29;1546;-77
2022/08/23 01:37:08;;;;;;;;;;;;;;;22.11;29.48;97282.97;4862859;29;1154;-78
2022/08/23 01:39:34;;;;;;;;;;;;;;;22.28;29.42;97290.00;4862809;29;989;-78
2022/08/23 01:42:01;;;;;;;;;;;;;;;22.29;29.38;97288.75;4847336;29;1294;-78
2022/08/23 01:44:26;;;;;;;;;;;;;;;22.37;28.77;97283.56;4861771;29;1493;-78
2022/08/23 01:46:52;;;;;;;;;;;;;;;21.99;29.60;97283.84;4880813;29;1976;-78
2022/08/23 01:49:17;;;;;;;;;;;;;;;22.16;29.17;97282.38;4881046;29;1300;-78
2022/08/23 01:51:43;;;;;;;;;;;;;;;22.21;29.48;97287.44;4865488;29;1174;-78
2022/08/23 01:54:09;;;;;;;;;;;;;;;22.13;29.71;97279.72;4850354;29;1138;-78
2022/08/23 01:56:35;;;;;;;;;;;;;;;22.19;29.56;97289.16;4881090;29;1173;-77
2022/08/23 01:59:00;;;;;;;;;;;;;;;22.38;29.29;97290.00;4910018;29;1393;-78
2022/08/23 02:01:31;;;;;;;;;;;;;;;22.22;29.31;97289.00;4869145;29;1409;-77
2022/08/23 02:03:56;;;;;;;;;;;;;;;22.40;29.25;97287.50;4899715;29;1038;-78
2022/08/23 02:06:22;;;;;;;;;;;;;;;22.22;29.58;97289.00;4927894;29;1981;-78
2022/08/23 02:09:00;;;;;;;;;;;;;;;22.40;28.90;97285.47;4940885;29;1148;-78
2022/08/23 02:11:27;;;;;;;;;;;;;;;22.05;29.62;97287.66;4940788;29;1249;-77
2022/08/23 02:13:53;;;;;;;;;;;;;;;22.13;29.52;97291.03;4912381;29;1503;-78
2022/08/23 02:16:25;;;;;;;;;;;;;;;22.19;29.57;97289.97;4941313;29;1399;-77
2022/08/23 02:18:50;;;;;;;;;;;;;;;22.27;29.53;97290.44;4900734;29;986;-78
2022/08/23 02:21:16;;;;;;;;;;;;;;;21.99;30.05;97286.69;4893273;29;1243;-78
2022/08/23 02:23:42;;;;;;;;;;;;;;;22.44;29.17;97297.44;4937282;29;1428;-77
2022/08/23 02:26:07;;;;;;;;;;;;;;;22.30;29.34;97295.97;4921401;29;943;-78
2022/08/23 02:28:33;;;;;;;;;;;;;;;22.30;29.50;97301.66;4883289;29;1964;-78
2022/08/23 02:30:59;;;;;;;;;;;;;;;22.22;29.81;97303.19;4917256;29;1393;-78
2022/08/23 02:33:25;;;;;;;;;;;;;;;22.12;29.88;97312.88;4902768;29;1236;-78
2022/08/23 02:35:50;;;;;;;;;;;;;;;22.19;29.67;97315.47;4902461;29;1191;-77
2022/08/23 02:38:17;;;;;;;;;;;;;;;22.16;29.72;97318.44;4898866;29;1156;-78
2022/08/23 02:40:42;;;;;;;;;;;;;;;22.19;29.81;97323.16;4902274;29;1110;-78
2022/08/23 02:43:08;;;;;;;;;;;;;;;22.08;30.02;97329.22;4876893;29;1326;-77
2022/08/23 02:45:34;;;;;;;;;;;;;;;22.20;29.85;97328.38;4859203;29;1892;-78
2022/08/23 02:48:00;;;;;;;;;;;;;;;22.45;29.54;97329.41;4861724;29;1911;-77
2022/08/23 02:50:33;;;;;;;;;;;;;;;22.12;29.87;97329.88;4892032;29;1273;-78
2022/08/23 02:52:59;;;;;;;;;;;;;;;22.19;30.24;97332.47;4879567;29;924;-77
2022/08/23 02:55:25;;;;;;;;;;;;;;;22.26;29.87;97334.22;4864683;29;1381;-78
2022/08/23 02:57:50;;;;;;;;;;;;;;;22.22;30.23;97334.34;4864792;29;1034;-78
2022/08/23 03:00:16;;;;;;;;;;;;;;;22.27;29.96;97345.06;4862402;29;1521;-78
2022/08/23 03:02:42;;;;;;;;;;;;;;;22.05;30.43;97341.47;4861261;29;1226;-78
2022/08/23 03:05:07;;;;;;;;;;;;;;;22.34;29.80;97346.84;4829234;29;1462;-78
2022/08/23 03:07:33;;;;;;;;;;;;;;;22.40;29.68;97361.22;4827539;29;1903;-78
2022/08/23 03:09:58;;;;;;;;;;;;;;;22.20;30.09;97348.19;4839528;29;1534;-78
2022/08/23 03:12:26;;;;;;;;;;;;;;;22.23;30.10;97355.78;4783464;29;1285;-77
2022/08/23 03:14:55;;;;;;;;;;;;;;;22.31;30.02;97359.91;4839446;29;1470;-78
2022/08/23 03:17:20;;;;;;;;;;;;;;;22.29;29.95;97365.25;4876520;29;1161;-78
2022/08/23 03:19:47;;;;;;;;;;;;;;;22.09;30.50;97353.47;4876693;29;1259;-77
2022/08/23 03:22:12;;;;;;;;;;;;;;;22.08;30.29;97361.19;4861675;29;937;-78
2022/08/23 03:24:38;;;;;;;;;;;;;;;22.26;30.38;97363.34;4856002;29;1674;-78
2022/08/23 03:27:04;;;;;;;;;;;;;;;22.31;30.00;97364.78;4842379;29;1895;-77
2022/08/23 03:29:30;;;;;;;;;;;;;;;22.19;30.12;97363.63;4838664;29;1210;-77
2022/08/23 03:32:05;;;;;;;;;;;;;;;22.27;29.96;97366.97;4824474;29;1408;-78
2022/08/23 03:34:35;;;;;;;;;;;;;;;22.21;30.40;97360.31;4839427;29;1328;-77
2022/08/23 03:37:01;;;;;;;;;;;;;;;22.45;29.94;97369.09;4839484;29;966;-78
2022/08/23 03:39:27;;;;;;;;;;;;;;;22.28;29.75;97355.19;4838726;29;1562;-78
2022/08/23 03:41:55;;;;;;;;;;;;;;;22.30;30.03;97364.00;4794091;29;1118;-77
2022/08/23 03:44:20;;;;;;;;;;;;;;;22.28;29.97;97371.41;4798881;29;1443;-78
2022/08/23 03:46:48;;;;;;;;;;;;;;;22.25;30.21;97369.47;4849604;29;1899;-78
2022/08/23 03:49:14;;;;;;;;;;;;;;;22.50;29.89;97371.34;4864600;29;1212;-78
2022/08/23 03:51:49;;;;;;;;;;;;;;;22.23;30.21;97367.13;4849102;29;1103;-77
2022/08/23 03:54:14;;;;;;;;;;;;;;;22.25;30.08;97370.28;4864632;29;1882;-78
2022/08/23 03:57:11;;;;;;;;;;;;;;;22.22;30.59;97370.41;4954485;29;1217;-78
2022/08/23 03:59:37;;;;;;;;;;;;;;;22.26;30.45;97373.88;4920695;29;961;-78
2022/08/23 04:02:06;;;;;;;;;;;;;;;22.27;29.97;97381.91;4859747;29;1767;-78
2022/08/23 04:04:32;;;;;;;;;;;;;;;22.28;30.24;97372.19;4845733;29;1002;-78
2022/08/23 04:07:19;;;;;;;;;;;;;;;22.39;30.07;97370.97;4846048;29;1907;-78
2022/08/23 04:09:46;;;;;;;;;;;;;;;22.23;30.52;97375.63;4845961;29;1676;-78
2022/08/23 04:12:12;;;;;;;;;;;;;;;22.25;30.15;97370.28;4846120;29;1237;-78
2022/08/23 04:14:37;;;;;;;;;;;;;;;22.30;29.86;97375.34;4845904;29;1011;-77
2022/08/23 04:17:02;;;;;;;;;;;;;;;22.17;30.31;97374.63;4845879;29;1151;-78
2022/08/23 04:19:28;;;;;;;;;;;;;;;22.18;30.47;97376.22;4830518;29;1152;-78
2022/08/23 04:22:00;;;;;;;;;;;;;;;22.20;30.04;97376.53;4808837;29;1177;-77
2022/08/23 04:24:31;;;;;;;;;;;;;;;22.08;30.27;97374.56;4791125;29;1204;-78
2022/08/23 04:26:56;;;;;;;;;;;;;;;22.45;29.71;97374.78;4790969;29;1903;-78
2022/08/23 04:29:22;;;;;;;;;;;;;;;22.05;30.58;97366.97;4796243;29;1148;-77
2022/08/23 04:31:48;;;;;;;;;;;;;;;22.43;29.90;97375.22;4772225;30;1292;-77
2022/08/23 04:34:15;;;;;;;;;;;;;;;22.14;30.52;97371.94;4755135;30;1315;-78
2022/08/23 04:36:41;;;;;;;;;;;;;;;22.43;29.90;97374.44;4772485;30;1639;-78
2022/08/23 04:39:06;;;;;;;;;;;;;;;22.12;30.48;97369.56;4772452;30;1168;-78
2022/08/23 04:44:16;;;;;;;;;;;;;;;22.41;30.17;97376.97;4808419;29;1197;-77
2022/08/23 04:46:43;;;;;;;;;;;;;;;22.31;30.39;97376.13;4767358;29;1911;-77
2022/08/23 04:49:09;;;;;;;;;;;;;;;22.19;30.28;97380.63;4790845;29;1310;-78
2022/08/23 04:51:36;;;;;;;;;;;;;;;22.28;30.00;97375.03;4778023;29;1317;-77
2022/08/23 04:54:02;;;;;;;;;;;;;;;22.39;30.02;97388.78;4765648;30;1310;-78
2022/08/23 04:56:30;;;;;;;;;;;;;;;22.28;30.51;97394.84;4789927;29;1275;-77
2022/08/23 04:58:56;;;;;;;;;;;;;;;22.29;30.44;97404.94;4815788;29;1297;-77
2022/08/23 05:01:24;;;;;;;;;;;;;;;22.08;30.85;97397.22;4814169;29;1285;-78
2022/08/23 05:03:51;;;;;;;;;;;;;;;22.47;29.94;97400.59;4815954;29;1442;-78
2022/08/23 05:06:17;;;;;;;;;;;;;;;22.22;30.52;97396.69;4817740;29;1332;-77
2022/08/23 05:08:42;;;;;;;;;;;;;;;21.99;30.99;97400.00;4792757;29;1984;-77
2022/08/23 05:11:08;;;;;;;;;;;;;;;22.32;30.35;97411.69;4800331;29;1243;-77
2022/08/23 05:13:34;;;;;;;;;;;;;;;22.50;30.11;97411.03;4808560;29;1140;-77
2022/08/23 05:16:01;;;;;;;;;;;;;;;22.30;30.21;97406.50;4811234;29;1084;-77
2022/08/23 05:18:31;;;;;;;;;;;;;;;22.30;30.13;97409.34;4811088;29;1261;-77
2022/08/23 05:20:56;;;;;;;;;;;;;;;22.35;30.42;97402.28;4826002;29;996;-77
2022/08/23 05:23:22;;;;;;;;;;;;;;;22.31;30.03;97405.25;4841383;29;1191;-78
2022/08/23 05:25:52;;;;;;;;;;;;;;;22.27;30.29;97415.94;4825181;29;1506;-77
2022/08/23 05:28:28;;;;;;;;;;;;;;;22.05;30.64;97407.44;4825192;29;1968;-77
2022/08/23 05:30:55;;;;;;;;;;;;;;;22.27;30.34;97415.94;4837732;29;1193;-78
2022/08/23 05:33:20;;;;;;;;;;;;;;;22.29;30.48;97416.28;4865204;29;1182;-77
2022/08/23 05:35:46;;;;;;;;;;;;;;;22.24;30.31;97405.53;4846422;29;1170;-78
2022/08/23 05:38:11;;;;;;;;;;;;;;;22.03;30.96;97420.50;4862076;29;1465;-78
2022/08/23 05:40:38;;;;;;;;;;;;;;;22.12;30.62;97426.22;4846816;29;1148;-78
2022/08/23 05:43:08;;;;;;;;;;;;;;;22.36;30.59;97424.47;4861603;29;1399;-78
2022/08/23 05:45:34;;;;;;;;;;;;;;;22.31;30.48;97422.25;4874300;29;1179;-78
2022/08/23 05:48:00;;;;;;;;;;;;;;;22.27;30.53;97421.59;4902110;29;1982;-78
2022/08/23 05:50:31;;;;;;;;;;;;;;;22.41;30.77;97416.63;4902302;29;1279;-77
2022/08/23 05:52:57;;;;;;;;;;;;;;;22.30;30.63;97422.72;4902277;29;1171;-78
2022/08/23 05:55:22;;;;;;;;;;;;;;;22.41;30.77;97420.25;4902283;29;1110;-77
2022/08/23 05:57:56;;;;;;;;;;;;;;;22.40;30.88;97430.03;4866022;29;1190;-77
2022/08/23 06:00:22;;;;;;;;;;;;;;;22.69;30.13;97420.38;4880211;29;1319;-78
2022/08/23 06:02:53;;;;;;;;;;;;;;;22.51;30.26;97418.25;4861189;29;1601;-78
2022/08/23 06:05:20;;;;;;;;;;;;;;;22.36;30.64;97415.97;4830190;29;1091;-78
2022/08/23 06:07:46;;;;;;;;;;;;;;;22.21;30.91;97411.34;4895436;29;1907;-78
2022/08/23 06:10:12;;;;;;;;;;;;;;;22.24;31.17;97419.72;4861447;29;1036;-78
2022/08/23 06:12:37;;;;;;;;;;;;;;;22.14;31.43;97411.63;4861427;29;1261;-77
2022/08/23 06:15:03;;;;;;;;;;;;;;;22.35;30.73;97417.25;4846369;29;1219;-78
2022/08/23 06:17:29;;;;;;;;;;;;;;;22.50;30.47;97422.38;4861244;29;1258;-77
2022/08/23 06:19:54;;;;;;;;;;;;;;;22.57;30.53;97416.41;4845758;29;1166;-78
2022/08/23 06:22:28;;;;;;;;;;;;;;;22.39;30.57;97422.78;4847143;29;1254;-78
2022/08/23 06:24:54;;;;;;;;;;;;;;;22.34;30.92;97424.16;4805625;29;1230262;-77
2022/08/23 06:27:32;;;;;;;;;;;;;;;22.51;30.57;97424.72;4833227;29;1904;-77
2022/08/23 06:29:58;;;;;;;;;;;;;;;22.39;30.59;97430.50;4841841;29;1155;-78
2022/08/23 06:32:30;;;;;;;;;;;;;;;22.47;30.42;97428.94;4825237;29;1060;-78
2022/08/23 06:35:14;;;;;;;;;;;;;;;22.28;30.76;97428.88;4843319;29;1003;-78
2022/08/23 06:37:50;;;;;;;;;;;;;;;22.34;30.50;97444.00;4843472;29;1211;-78
2022/08/23 06:40:34;;;;;;;;;;;;;;;22.46;30.70;97444.38;4839410;29;928;-78
2022/08/23 06:43:19;;;;;;;;;;;;;;;22.28;30.62;97440.19;4807194;29;985;-77
2022/08/23 06:46:20;;;;;;;;;;;;;;;22.27;30.70;97432.94;4789126;29;1003;-78
2022/08/23 06:48:46;;;;;;;;;;;;;;;22.41;30.73;97436.47;4788685;29;1982;-78
2022/08/23 06:51:19;;;;;;;;;;;;;;;22.60;30.41;97432.50;4778714;29;1234;-78
2022/08/23 06:53:52;;;;;;;;;;;;;;;22.47;30.54;97445.97;4788775;30;1132;-77
2022/08/23 06:56:47;;;;;;;;;;;;;;;22.34;30.85;97435.50;4788800;30;1240;-78
2022/08/23 06:59:16;;;;;;;;;;;;;;;22.42;30.50;97435.22;4788686;30;995;-78
2022/08/23 07:01:59;;;;;;;;;;;;;;;22.53;30.34;97444.09;4770445;30;1690;-78
2022/08/23 07:04:39;;;;;;;;;;;;;;;22.63;30.47;97448.56;4806767;29;983;-78
2022/08/23 07:07:24;;;;;;;;;;;;;;;22.51;30.72;97446.63;4793708;29;1977;-78
2022/08/23 07:09:49;;;;;;;;;;;;;;;22.52;30.61;97453.88;4808018;29;1455;-77
2022/08/23 07:12:18;;;;;;;;;;;;;;;22.24;31.23;97462.22;4824608;29;1161;-78
2022/08/23 07:14:45;;;;;;;;;;;;;;;22.35;31.12;97445.59;4805855;29;1215;-78
2022/08/23 07:17:11;;;;;;;;;;;;;;;22.26;31.52;97459.69;4803923;29;1026;-78
2022/08/23 07:19:36;;;;;;;;;;;;;;;22.53;31.02;97458.28;4842017;29;1188;-78
2022/08/23 07:22:02;;;;;;;;;;;;;;;22.49;30.83;97454.81;4864253;29;1271;-78
2022/08/23 07:24:28;;;;;;;;;;;;;;;22.61;30.58;97451.06;4898512;29;1352;-79
2022/08/23 07:26:54;;;;;;;;;;;;;;;22.48;30.50;97458.88;4898333;29;1927;-77
2022/08/23 07:29:20;;;;;;;;;;;;;;;22.63;30.81;97457.06;4898595;29;1207;-78
2022/08/23 07:31:47;;;;;;;;;;;;;;;22.85;30.37;97454.19;4914253;29;1244;-77
2022/08/23 07:34:13;;;;;;;;;;;;;;;22.60;31.46;97446.66;4936357;29;1590;-79
2022/08/23 07:36:40;;;;;;;;;;;;;;;22.73;30.86;97453.00;4905100;29;1211;-78
2022/08/23 07:39:06;;;;;;;;;;;;;;;22.87;30.81;97454.50;4905064;29;1476;-79
2022/08/23 07:41:32;;;;;;;;;;;;;;;22.80;30.74;97460.47;4901834;29;1065;-79
2022/08/23 07:43:59;;;;;;;;;;;;;;;22.86;30.25;97462.22;4917242;29;1019;-79
2022/08/23 07:46:24;;;;;;;;;;;;;;;22.78;30.74;97460.13;4901644;29;1154;-79
2022/08/23 07:48:51;;;;;;;;;;;;;;;22.62;30.94;97464.00;4917333;29;1983;-77
2022/08/23 07:51:20;;;;;;;;;;;;;;;22.62;30.77;97469.66;4886453;29;1149;-78
2022/08/23 07:53:46;;;;;;;;;;;;;;;22.62;31.03;97464.78;4916767;29;1022;-78
2022/08/23 07:56:15;;;;;;;;;;;;;;;22.56;30.79;97477.19;4901119;29;1352;-78
2022/08/23 07:58:54;;;;;;;;;;;;;;;22.59;30.83;97476.28;4896141;29;1264;-79
2022/08/23 08:01:33;;;;;;;;;;;;;;;22.93;30.04;97474.56;4882873;29;1119;-78
2022/08/23 08:03:59;;;;;;;;;;;;;;;22.84;30.63;97475.28;4882999;29;1252;-78
2022/08/23 08:06:29;;;;;;;;;;;;;;;22.77;30.41;97465.00;4901279;29;1361;-77
2022/08/23 08:08:55;;;;;;;;;;;;;;;22.65;30.93;97468.75;4879612;29;1210;-77
2022/08/23 08:11:21;;;;;;;;;;;;;;;22.60;30.82;97472.19;4864116;29;1075;-77
2022/08/23 08:13:47;;;;;;;;;;;;;;;22.62;30.68;97464.00;4824218;29;1271;-78
2022/08/23 08:16:23;;;;;;;;;;;;;;;22.76;30.16;97452.09;4809223;29;1305;-79
2022/08/23 08:18:49;;;;;;;;;;;;;;;22.68;30.26;97453.63;4835452;29;1342;-78
2022/08/23 08:21:41;;;;;;;;;;;;;;;22.81;30.12;97465.66;4841985;29;920;-78
2022/08/23 08:24:22;;;;;;;;;;;;;;;22.70;30.48;97467.34;4813832;29;1457;-77
2022/08/23 08:26:56;;;;;;;;;;;;;;;22.78;30.17;97465.81;4843236;29;1996;-78
2022/08/23 08:29:21;;;;;;;;;;;;;;;22.61;30.20;97459.59;4809134;29;1202;-78
2022/08/23 08:31:50;;;;;;;;;;;;;;;22.43;30.55;97456.63;4824490;29;1158;-79
2022/08/23 08:34:16;;;;;;;;;;;;;;;22.76;30.16;97460.59;4824249;29;1214;-79
2022/08/23 08:36:46;;;;;;;;;;;;;;;22.71;30.04;97455.53;4794449;29;1232;-78
2022/08/23 08:39:18;;;;;;;;;;;;;;;22.66;30.40;97450.47;4798962;29;1136;-78
2022/08/23 08:41:55;;;;;;;;;;;;;;;22.79;30.21;97445.47;4812456;29;1148;-78
2022/08/23 08:44:39;;;;;;;;;;;;;;;22.94;29.78;97439.25;4838935;29;1145;-79
2022/08/23 08:47:12;;;;;;;;;;;;;;;22.72;30.11;97430.81;4864121;29;1927;-78
2022/08/23 08:49:41;;;;;;;;;;;;;;;22.62;30.64;97432.81;4863725;29;1494;-78
2022/08/23 08:52:16;;;;;;;;;;;;;;;22.67;30.54;97426.53;4864027;29;1129;-78
2022/08/23 08:54:42;;;;;;;;;;;;;;;22.66;30.32;97430.63;4845179;29;1326;-77
2022/08/23 08:57:08;;;;;;;;;;;;;;;22.77;30.19;97419.63;4860782;29;1107;-78
2022/08/23 08:59:44;;;;;;;;;;;;;;;22.79;30.05;97434.13;4902292;29;1208;-78
2022/08/23 09:02:11;;;;;;;;;;;;;;;22.72;30.19;97445.75;4904350;29;1344;-78
2022/08/23 09:04:37;;;;;;;;;;;;;;;22.68;30.42;97450.00;4907270;29;1249;-78
2022/08/23 09:07:16;;;;;;;;;;;;;;;22.48;30.73;97442.66;4923461;29;1985;-78
2022/08/23 09:09:51;;;;;;;;;;;;;;;22.55;30.52;97441.59;4923167;29;1125;-78
2022/08/23 09:12:22;;;;;;;;;;;;;;;22.62;30.74;97458.31;4923164;29;1063;-78
2022/08/23 09:15:02;;;;;;;;;;;;;;;22.77;30.39;97450.84;4938576;29;942;-78
2022/08/23 09:17:34;;;;;;;;;;;;;;;22.81;30.09;97454.31;4938822;29;893;-78
2022/08/23 09:20:00;;;;;;;;;;;;;;;22.53;30.75;97456.22;4922655;29;1263;-78
2022/08/23 09:22:32;;;;;;;;;;;;;;;22.53;30.87;97456.22;4906786;29;1371;-78
2022/08/23 09:24:57;;;;;;;;;;;;;;;22.56;30.96;97457.34;4922451;29;1086;-78
2022/08/23 09:27:27;;;;;;;;;;;;;;;22.75;30.62;97461.06;4931221;28;1964;-78
2022/08/23 09:29:57;;;;;;;;;;;;;;;22.65;30.38;97463.06;4979618;28;1342;-78
2022/08/23 09:32:27;;;;;;;;;;;;;;;22.47;31.15;97462.97;4989046;28;1206;-78
2022/08/23 09:34:53;;;;;;;;;;;;;;;22.50;30.87;97467.72;4926433;29;1339;-78
2022/08/23 09:37:21;;;;;;;;;;;;;;;22.71;30.64;97469.72;4912805;29;1524;-78
2022/08/23 09:39:49;;;;;;;;;;;;;;;22.79;30.38;97473.06;4910136;29;1485;-79
2022/08/23 09:42:31;;;;;;;;;;;;;;;22.62;30.65;97464.00;4912232;29;1328;-79
2022/08/23 09:44:57;;;;;;;;;;;;;;;22.72;30.60;97462.78;4909235;29;1285;-78
2022/08/23 09:47:33;;;;;;;;;;;;;;;22.87;30.13;97469.47;4937379;29;1899;-78
2022/08/23 09:50:09;;;;;;;;;;;;;;;22.71;30.34;97471.75;4922252;29;1192;-78
2022/08/23 09:52:36;;;;;;;;;;;;;;;22.84;30.20;97472.44;4900040;29;1327;-79
2022/08/23 09:55:08;;;;;;;;;;;;;;;22.68;30.44;97467.81;4884556;29;1769;-78
2022/08/23 09:57:38;;;;;;;;;;;;;;;22.71;30.37;97477.44;4884541;29;1186;-78
2022/08/23 10:00:13;;;;;;;;;;;;;;;22.74;30.57;97470.81;4900013;29;1181;-78
2022/08/23 10:02:40;;;;;;;;;;;;;;;22.83;30.27;97468.81;4884836;29;1111;-79
2022/08/23 10:05:27;;;;;;;;;;;;;;;22.56;30.60;97465.84;4915509;29;1068;-79
2022/08/23 10:07:57;;;;;;;;;;;;;;;22.87;30.16;97466.63;4925275;29;1899;-79
2022/08/23 10:10:25;;;;;;;;;;;;;;;22.72;30.58;97462.78;4941023;29;1197;-78
2022/08/23 10:12:55;;;;;;;;;;;;;;;22.64;30.54;97461.50;4941312;29;1152;-78
2022/08/23 10:15:22;;;;;;;;;;;;;;;22.70;30.30;97465.31;4898279;29;1495;-78
2022/08/23 10:18:23;;;;;;;;;;;;;;;22.61;30.42;97462.41;4899685;29;1129;-79
2022/08/23 10:20:59;;;;;;;;;;;;;;;22.69;30.48;97466.56;4918521;29;1145;-78
2022/08/23 10:23:32;;;;;;;;;;;;;;;22.67;30.67;97466.22;4894189;29;1329;-78
2022/08/23 10:25:58;;;;;;;;;;;;;;;22.97;30.01;97461.03;4899842;29;1079;-78
2022/08/23 10:31:26;;;;;;;;;;;;;;;22.65;30.56;97465.91;4842801;29;1174;-79
2022/08/23 10:34:15;;;;;;;;;;;;;;;22.63;30.54;97471.25;4859298;29;1257;-78
2022/08/23 10:37:04;;;;;;;;;;;;;;;22.70;30.43;97468.16;4843555;29;1318;-79
2022/08/23 10:39:30;;;;;;;;;;;;;;;22.68;30.73;97484.81;4828846;29;1119;-78
2022/08/23 10:42:03;;;;;;;;;;;;;;;22.61;30.87;97479.44;4825653;29;1151;-79
2022/08/23 10:44:34;;;;;;;;;;;;;;;22.85;30.13;97483.34;4810293;29;1215;-78
2022/08/23 10:47:20;;;;;;;;;;;;;;;22.85;30.24;97477.66;4824050;29;1920;-78
2022/08/23 10:49:48;;;;;;;;;;;;;;;22.70;30.71;97475.88;4843267;29;1115;-79
2022/08/23 10:52:16;;;;;;;;;;;;;;;22.75;30.53;97478.09;4861855;29;970;-78
2022/08/23 10:54:58;;;;;;;;;;;;;;;22.63;30.70;97476.91;4853271;29;1122;-78
2022/08/23 10:57:38;;;;;;;;;;;;;;;22.74;30.76;97471.63;4867810;29;1284;-79
2022/08/23 11:00:07;;;;;;;;;;;;;;;22.52;30.64;97465.19;4835138;29;1301;-78
2022/08/23 11:02:38;;;;;;;;;;;;;;;22.67;30.69;97454.88;4842645;29;1209;-78
2022/08/23 11:05:32;;;;;;;;;;;;;;;22.87;30.58;97475.16;4825576;29;1375;-78
2022/08/23 11:08:22;;;;;;;;;;;;;;;22.69;30.57;97463.72;4824131;29;1982;-78
2022/08/23 11:10:47;;;;;;;;;;;;;;;22.56;31.12;97465.84;4839922;29;1306;-79
2022/08/23 11:13:14;;;;;;;;;;;;;;;22.90;30.10;97464.13;4851278;29;1301;-78
2022/08/23 11:15:42;;;;;;;;;;;;;;;22.79;30.70;97459.66;4840089;29;1371;-78
2022/08/23 11:18:10;;;;;;;;;;;;;;;22.65;30.74;97451.72;4824586;29;1313;-78
2022/08/23 11:20:58;;;;;;;;;;;;;;;22.65;30.83;97454.56;4839790;29;1388;-78
2022/08/23 11:23:37;;;;;;;;;;;;;;;22.67;30.86;97454.88;4849470;29;1154;-79
2022/08/23 11:26:02;;;;;;;;;;;;;;;22.71;30.61;97455.53;4858419;29;1178;-77
2022/08/23 11:28:28;;;;;;;;;;;;;;;22.62;30.62;97452.66;4873819;29;1919;-78
2022/08/23 11:30:56;;;;;;;;;;;;;;;22.60;30.92;97455.19;4898605;29;1036;-79
2022/08/23 11:33:30;;;;;;;;;;;;;;;22.77;30.55;97452.88;4888345;29;1288;-78
2022/08/23 11:36:08;;;;;;;;;;;;;;;22.67;30.92;97452.03;4868978;29;955;-78
2022/08/23 11:38:46;;;;;;;;;;;;;;;22.76;30.59;97449.25;4864512;29;1253;-79
2022/08/23 11:41:18;;;;;;;;;;;;;;;22.66;30.83;97458.97;4864211;29;1483;-79
2022/08/23 11:43:48;;;;;;;;;;;;;;;22.68;30.93;97455.66;4864321;29;1305;-78
2022/08/23 11:46:25;;;;;;;;;;;;;;;22.81;30.81;97451.47;4845559;29;1057;-78
2022/08/23 11:48:54;;;;;;;;;;;;;;;22.58;30.92;97449.16;4861370;29;1976;-78
2022/08/23 11:51:46;;;;;;;;;;;;;;;22.47;31.13;97441.06;4861332;29;889;-78
2022/08/23 11:54:27;;;;;;;;;;;;;;;22.77;30.55;97442.31;4824310;29;975;-79
2022/08/23 11:56:53;;;;;;;;;;;;;;;22.64;30.89;97444.50;4824856;29;1039;-79
2022/08/23 11:59:23;;;;;;;;;;;;;;;22.99;30.28;97444.31;4809043;29;1326;-78
2022/08/23 12:01:48;;;;;;;;;;;;;;;22.92;30.39;97441.78;4833040;29;919;-78
2022/08/23 12:04:26;;;;;;;;;;;;;;;22.69;30.42;97438.22;4846898;29;946;-78
2022/08/23 12:06:54;;;;;;;;;;;;;;;22.76;30.61;97423.72;4854728;29;1993;-78
2022/08/23 12:09:23;;;;;;;;;;;;;;;22.66;30.75;97427.78;4864722;29;972;-77
2022/08/23 12:11:54;;;;;;;;;;;;;;;22.73;30.95;97436.00;4864769;29;1061;-79
2022/08/23 12:14:31;;;;;;;;;;;;;;;22.69;30.64;97434.56;4898188;29;955;-79
2022/08/23 12:16:57;;;;;;;;;;;;;;;22.76;30.78;97437.91;4909233;29;1016;-78
2022/08/23 12:19:32;;;;;;;;;;;;;;;22.61;31.15;97434.84;4905033;29;870;-79
2022/08/23 12:21:57;;;;;;;;;;;;;;;22.91;30.69;97451.56;4883120;29;1145;-78
2022/08/23 12:24:25;;;;;;;;;;;;;;;22.84;30.80;97446.91;4883181;29;1283;-79
2022/08/23 12:27:06;;;;;;;;;;;;;;;22.66;30.80;97444.81;4883100;29;1907;-79
2022/08/23 12:29:35;;;;;;;;;;;;;;;22.94;30.43;97439.25;4883090;29;990;-78
2022/08/23 12:32:00;;;;;;;;;;;;;;;22.60;31.15;97455.19;4952543;29;1187;-78
2022/08/23 12:34:26;;;;;;;;;;;;;;;22.74;30.78;97437.59;4958658;29;980;-78
2022/08/23 12:36:57;;;;;;;;;;;;;;;22.35;31.34;97439.91;4943215;29;948;-79
2022/08/23 12:39:33;;;;;;;;;;;;;;;22.53;31.26;97432.75;4942866;29;865;-79
2022/08/23 12:42:14;;;;;;;;;;;;;;;22.47;31.06;97440.28;4958904;29;1036;-79
2022/08/23 12:44:40;;;;;;;;;;;;;;;22.68;30.94;97438.66;4901269;29;996;-79
2022/08/23 12:47:10;;;;;;;;;;;;;;;22.76;30.99;97440.75;4904364;29;1975;-78
2022/08/23 12:49:35;;;;;;;;;;;;;;;22.84;30.75;97447.69;4900765;29;1013;-78
2022/08/23 12:55:28;;;;;;;;;;;;;;;22.52;31.19;97442.53;4863832;29;1236;-79
2022/08/23 12:57:55;;;;;;;;;;;;;;;22.82;30.62;97450.22;4864463;29;967;-78
2022/08/23 13:00:24;;;;;;;;;;;;;;;22.82;30.61;97441.72;4848450;29;920;-79
2022/08/23 13:02:57;;;;;;;;;;;;;;;22.97;30.56;97449.69;4848962;29;930;-78
2022/08/23 13:05:26;;;;;;;;;;;;;;;22.73;31.09;97444.50;4848613;29;1399;-78
2022/08/23 13:07:51;;;;;;;;;;;;;;;22.72;30.67;97451.44;4848133;29;1903;-78
2022/08/23 13:10:17;;;;;;;;;;;;;;;22.77;30.89;97453.66;4848255;29;935;-78
2022/08/23 13:12:42;;;;;;;;;;;;;;;22.64;31.17;97453.00;4863265;29;982;-78
2022/08/23 13:15:08;;;;;;;;;;;;;;;22.58;31.13;97457.66;4863791;29;902;-78
2022/08/23 13:17:35;;;;;;;;;;;;;;;22.79;30.71;97448.31;4868881;29;1080;-79
2022/08/23 13:20:01;;;;;;;;;;;;;;;22.51;31.00;97438.09;4881633;29;905;-77
2022/08/23 13:22:27;;;;;;;;;;;;;;;22.62;30.91;97435.63;4938966;29;975;-78
2022/08/23 13:24:58;;;;;;;;;;;;;;;22.73;30.75;97430.31;4938481;29;1138;-78
2022/08/23 13:27:26;;;;;;;;;;;;;;;22.88;30.67;97436.25;4977274;28;1898;-78